Time;durP1;ratioP1;P1;durP2;ratioP2;P2;SDS_P1;SDS_P2;PMS_P1;PMS_P2;Temp;Humidity;BMP_temperature;BMP_pressure;BME280_temperature;BME280_humidity;BME280_pressure;Samples;Min_cycle;Max_cycle;Signal;HPM_P1;HPM_P2
2023/07/14 00:02:05;;;;;;;9.30;8.20;;;;;;;16.57;92.63;101630.28;5041902;28;20050;-75
2023/07/14 00:04:34;;;;;;;10.88;8.55;;;;;;;16.54;92.75;101622.44;5036214;28;20220;-75
2023/07/14 00:07:03;;;;;;;9.50;8.50;;;;;;;16.51;92.63;101621.72;5034399;28;20080;-75
2023/07/14 00:09:32;;;;;;;12.35;9.27;;;;;;;16.45;92.62;101622.84;5022651;28;20183;-75
2023/07/14 00:12:00;;;;;;;10.35;8.85;;;;;;;16.37;92.49;101620.50;5037299;28;20051;-75
2023/07/14 00:14:28;;;;;;;9.80;8.57;;;;;;;16.29;92.64;101625.28;5027160;28;20042;-75
2023/07/14 00:16:56;;;;;;;10.77;9.07;;;;;;;16.25;92.75;101623.66;5027309;28;20041;-74
2023/07/14 00:19:25;;;;;;;14.02;9.65;;;;;;;16.18;93.17;101609.75;5025735;28;20069;-74
2023/07/14 00:21:53;;;;;;;11.25;8.75;;;;;;;16.13;93.35;101615.25;5023726;28;20076;-74
2023/07/14 00:24:23;;;;;;;13.25;9.40;;;;;;;16.11;93.87;101614.47;5041700;28;20041;-74
2023/07/14 00:26:58;;;;;;;12.23;9.95;;;;;;;16.10;94.06;101614.53;5026498;28;20148;-74
2023/07/14 00:29:26;;;;;;;11.85;9.65;;;;;;;16.10;94.38;101617.19;5022623;28;20097;-75
2023/07/14 00:31:55;;;;;;;11.88;9.68;;;;;;;16.10;94.60;101609.19;5028660;28;20542;-74
2023/07/14 00:34:23;;;;;;;11.20;9.20;;;;;;;16.11;94.77;101619.78;5027226;28;20104;-74
2023/07/14 00:36:51;;;;;;;10.98;9.02;;;;;;;16.11;95.01;101611.81;5032220;28;20126;-74
2023/07/14 00:39:18;;;;;;;13.45;9.82;;;;;;;16.13;95.08;101611.75;5042858;28;20038;-74
2023/07/14 00:41:47;;;;;;;11.20;10.00;;;;;;;16.14;95.33;101610.81;5032913;28;20049;-74
2023/07/14 00:44:15;;;;;;;12.00;10.18;;;;;;;16.16;95.37;101619.59;5044345;28;20493;-76
2023/07/14 00:46:45;;;;;;;12.63;9.60;;;;;;;16.18;95.44;101617.72;5034663;28;20552;-74
2023/07/14 00:49:32;;;;;;;12.35;9.82;;;;;;;16.18;95.54;101615.06;5031860;28;20062;-75
2023/07/14 00:52:20;;;;;;;10.57;9.20;;;;;;;16.19;95.29;101613.28;5029269;28;20057;-74
2023/07/14 00:54:51;;;;;;;10.85;9.65;;;;;;;16.17;95.07;101604.50;5028105;28;20100;-74
2023/07/14 00:57:25;;;;;;;13.45;9.77;;;;;;;16.13;95.17;101614.41;5029437;28;20104;-74
2023/07/14 00:59:59;;;;;;;11.07;9.77;;;;;;;16.10;95.33;101609.19;5041307;28;20497;-74
2023/07/14 01:02:28;;;;;;;11.68;9.20;;;;;;;16.04;95.28;101604.16;5043656;28;20204;-74
2023/07/14 01:05:03;;;;;;;10.20;9.10;;;;;;;15.98;95.16;101600.78;5029869;28;20078;-74
2023/07/14 01:07:41;;;;;;;10.95;9.65;;;;;;;15.87;95.31;101599.50;5025617;28;20046;-75
2023/07/14 01:10:15;;;;;;;12.50;9.80;;;;;;;15.80;95.39;101602.41;5026496;28;20042;-74
2023/07/14 01:12:53;;;;;;;12.73;10.15;;;;;;;15.73;95.56;101598.22;5029547;28;20042;-74
2023/07/14 01:15:21;;;;;;;12.30;10.73;;;;;;;15.68;95.88;101598.41;5040997;28;20049;-75
2023/07/14 01:17:50;;;;;;;12.10;10.23;;;;;;;15.65;95.87;101600.34;5025784;28;20042;-74
2023/07/14 01:20:18;;;;;;;11.98;10.52;;;;;;;15.61;96.02;101602.25;5025036;28;20042;-74
2023/07/14 01:23:13;;;;;;;14.77;10.73;;;;;;;15.59;96.27;101603.25;5041165;28;20044;-75
2023/07/14 01:25:51;;;;;;;13.70;10.27;;;;;;;15.56;96.23;101598.03;5029796;28;20046;-74
2023/07/14 01:28:19;;;;;;;11.95;10.13;;;;;;;15.53;96.46;101599.88;5034985;28;20483;-75
2023/07/14 01:30:47;;;;;;;13.85;9.90;;;;;;;15.54;96.79;101608.75;5025877;28;20046;-75
2023/07/14 01:33:18;;;;;;;11.18;9.98;;;;;;;15.55;97.10;101598.97;5039946;28;20046;-75
2023/07/14 01:35:54;;;;;;;12.75;9.73;;;;;;;15.57;97.09;101594.47;5039486;28;20034;-74
2023/07/14 01:38:23;;;;;;;12.20;9.90;;;;;;;15.60;96.96;101589.03;5023074;28;20054;-74
2023/07/14 01:40:53;;;;;;;14.30;10.60;;;;;;;15.60;96.76;101586.38;5033290;28;20513;-75
2023/07/14 01:43:21;;;;;;;11.50;9.82;;;;;;;15.57;96.56;101587.34;5031945;28;20477;-74
2023/07/14 01:46:00;;;;;;;14.00;11.15;;;;;;;15.54;96.70;101590.16;5026963;28;20492;-74
2023/07/14 01:48:48;;;;;;;13.38;10.68;;;;;;;15.50;96.50;101585.88;5032551;28;20164;-74
2023/07/14 01:51:17;;;;;;;15.13;11.73;;;;;;;15.46;96.58;101577.16;5027265;28;20561;-74
2023/07/14 01:54:04;;;;;;;14.95;11.88;;;;;;;15.42;96.60;101572.88;5035133;28;20045;-74
2023/07/14 01:56:34;;;;;;;14.35;11.95;;;;;;;15.39;96.77;101586.28;5031371;28;20045;-75
2023/07/14 01:59:15;;;;;;;15.07;11.82;;;;;;;15.34;96.94;101575.84;5025312;28;20045;-75
2023/07/14 02:01:44;;;;;;;18.88;12.32;;;;;;;15.31;96.98;101578.63;5037620;28;20132;-75
2023/07/14 02:04:27;;;;;;;14.68;12.70;;;;;;;15.26;97.18;101572.59;5038583;28;20042;-75
2023/07/14 02:06:56;;;;;;;14.90;12.27;;;;;;;15.24;97.18;101576.25;5018221;28;20046;-74
2023/07/14 02:09:28;;;;;;;16.00;12.65;;;;;;;15.22;97.39;101579.81;5039471;28;20050;-76
2023/07/14 02:12:00;;;;;;;15.55;12.70;;;;;;;15.22;97.58;101568.34;5027229;28;20570;-75
2023/07/14 02:14:40;;;;;;;16.38;13.82;;;;;;;15.22;98.11;101568.34;5019450;28;20100;-75
2023/07/14 02:17:23;;;;;;;17.00;13.95;;;;;;;15.26;98.29;101575.25;5052642;28;20038;-75
2023/07/14 02:19:51;;;;;;;15.93;14.13;;;;;;;15.31;98.52;101570.66;5043948;28;20100;-75
2023/07/14 02:22:21;;;;;;;16.70;14.05;;;;;;;15.36;98.51;101565.16;5028024;28;20137;-75
2023/07/14 02:24:51;;;;;;;21.08;15.23;;;;;;;15.42;98.72;101570.22;5033362;28;20034;-75
2023/07/14 02:27:18;;;;;;;17.40;14.90;;;;;;;15.45;98.63;101559.47;5028608;28;20049;-76
2023/07/14 02:29:46;;;;;;;17.75;14.68;;;;;;;15.47;98.52;101562.94;5022799;28;20046;-76
2023/07/14 02:32:27;;;;;;;19.73;15.00;;;;;;;15.52;98.31;101563.63;5025883;28;20034;-76
2023/07/14 02:35:34;;;;;;;16.70;14.85;;;;;;;15.50;98.28;101562.84;5025369;28;20569;-76
2023/07/14 02:38:12;;;;;;;20.02;15.40;;;;;;;15.50;98.00;101559.28;5031743;28;20045;-74
2023/07/14 02:40:46;;;;;;;17.77;14.68;;;;;;;15.47;97.96;101565.59;5025677;28;20121;-74
2023/07/14 02:43:19;;;;;;;;;;;;;;;15.43;97.75;101561.31;5039751;28;20089;-74
2023/07/14 02:46:01;;;;;;;18.88;15.63;;;;;;;15.42;97.87;101566.69;5025479;28;20008;-74
2023/07/14 02:48:46;;;;;;;15.98;14.27;;;;;;;15.40;97.88;101556.16;5024213;28;20050;-74
2023/07/14 02:51:14;;;;;;;16.15;14.02;;;;;;;15.37;97.93;101561.56;5024311;28;20044;-75
2023/07/14 02:53:41;;;;;;;17.42;14.30;;;;;;;15.34;97.72;101561.69;5035481;28;20517;-74
2023/07/14 02:56:09;;;;;;;16.27;14.13;;;;;;;15.29;97.72;101558.34;5025562;28;20042;-76
2023/07/14 02:58:37;;;;;;;16.40;14.27;;;;;;;15.27;97.83;101560.19;5027987;28;20045;-76
2023/07/14 03:01:06;;;;;;;14.88;13.38;;;;;;;15.22;97.93;101555.91;5035306;28;20054;-75
2023/07/14 03:03:36;;;;;;;15.10;13.48;;;;;;;15.20;97.92;101570.19;5038052;28;20172;-76
2023/07/14 03:06:03;;;;;;;15.52;13.88;;;;;;;15.17;97.88;101559.66;5024205;28;20065;-75
2023/07/14 03:08:31;;;;;;;14.77;13.02;;;;;;;15.13;98.09;101560.72;5023259;28;20137;-76
2023/07/14 03:11:00;;;;;;;16.23;14.23;;;;;;;15.09;97.83;101561.75;5030155;28;20042;-75
2023/07/14 03:13:27;;;;;;;16.15;14.35;;;;;;;15.04;97.78;101559.28;5025648;28;20093;-75
2023/07/14 03:15:55;;;;;;;15.23;12.70;;;;;;;14.99;97.92;101554.13;5033056;28;20049;-75
2023/07/14 03:18:22;;;;;;;19.40;14.88;;;;;;;14.98;98.15;101557.72;5028963;28;20502;-74
2023/07/14 03:21:02;;;;;;;17.95;15.07;;;;;;;15.00;98.52;101557.69;5042029;28;20069;-74
2023/07/14 03:23:30;;;;;;;18.88;15.25;;;;;;;15.00;98.47;101553.22;5029368;28;20541;-74
2023/07/14 03:26:07;;;;;;;17.95;15.13;;;;;;;15.01;98.60;101547.00;5024212;28;20088;-74
2023/07/14 03:28:37;;;;;;;20.15;15.35;;;;;;;15.01;98.47;101549.66;5042206;28;20169;-74
2023/07/14 03:31:04;;;;;;;17.42;14.73;;;;;;;15.00;98.25;101553.22;5035886;28;20249;-74
2023/07/14 03:33:34;;;;;;;19.77;14.85;;;;;;;15.00;98.39;101542.59;5046286;28;20108;-74
2023/07/14 03:36:09;;;;;;;17.33;14.85;;;;;;;15.03;98.45;101539.84;5022777;28;20049;-73
2023/07/14 03:38:44;;;;;;;17.30;15.45;;;;;;;15.01;98.29;101544.34;5023339;28;20150;-73
2023/07/14 03:41:14;;;;;;;16.50;14.90;;;;;;;15.00;97.94;101553.22;5026375;28;20077;-73
2023/07/14 03:43:42;;;;;;;16.45;14.75;;;;;;;14.98;98.01;101547.09;5028404;28;20046;-74
2023/07/14 03:46:10;;;;;;;21.13;15.63;;;;;;;14.96;97.92;101543.63;5030601;28;20038;-73
2023/07/14 03:48:38;;;;;;;16.50;14.55;;;;;;;14.97;98.00;101541.84;5029883;28;20661;-73
2023/07/14 03:51:06;;;;;;;17.02;15.23;;;;;;;14.97;97.92;101536.53;5029665;28;20037;-73
2023/07/14 03:53:33;;;;;;;17.83;14.93;;;;;;;14.97;97.94;101536.53;5034301;28;20054;-74
2023/07/14 03:56:00;;;;;;;16.23;14.52;;;;;;;14.94;97.98;101540.19;5029939;28;20518;-73
2023/07/14 03:58:28;;;;;;;16.58;14.60;;;;;;;14.94;97.75;101536.66;5027216;28;20042;-73
2023/07/14 04:01:00;;;;;;;19.13;14.65;;;;;;;14.91;97.89;101543.81;5044831;28;20128;-76
2023/07/14 04:03:28;;;;;;;17.98;15.20;;;;;;;14.93;98.08;101535.81;5021833;28;20137;-76
2023/07/14 04:05:55;;;;;;;17.17;14.90;;;;;;;14.97;98.15;101544.50;5027440;28;21712;-76
2023/07/14 04:08:28;;;;;;;17.95;16.05;;;;;;;15.03;98.29;101536.31;5026163;28;20140;-76
2023/07/14 04:10:55;;;;;;;17.23;14.82;;;;;;;15.10;98.15;101534.28;5030438;28;20052;-76
2023/07/14 04:13:24;;;;;;;19.30;14.80;;;;;;;15.14;98.21;101530.59;5031221;28;20141;-76
2023/07/14 04:15:51;;;;;;;17.25;15.38;;;;;;;15.21;98.35;101537.41;5026616;28;20042;-76
2023/07/14 04:18:19;;;;;;;17.80;15.25;;;;;;;15.29;98.20;101529.13;5033737;28;20136;-76
2023/07/14 04:20:46;;;;;;;19.45;14.90;;;;;;;15.42;98.05;101535.66;5032280;28;20547;-76
2023/07/14 04:23:14;;;;;;;18.42;13.40;;;;;;;15.51;97.81;101539.78;5023389;28;20046;-75
2023/07/14 04:25:41;;;;;;;15.98;13.68;;;;;;;15.60;97.66;101535.88;5018299;28;20046;-76
2023/07/14 04:28:09;;;;;;;14.80;12.95;;;;;;;15.63;97.50;101536.63;5023861;28;20498;-74
2023/07/14 04:30:36;;;;;;;18.80;13.77;;;;;;;15.69;97.51;101532.84;5022412;28;20046;-75
2023/07/14 04:33:04;;;;;;;16.33;13.25;;;;;;;15.75;97.37;101529.94;5023165;28;20089;-76
2023/07/14 04:35:31;;;;;;;16.10;12.63;;;;;;;15.80;97.21;101522.66;5020676;28;20046;-76
2023/07/14 04:37:58;;;;;;;16.08;12.77;;;;;;;15.88;96.75;101530.31;5021144;28;20426;-75
2023/07/14 04:40:26;;;;;;;14.77;12.20;;;;;;;15.94;96.43;101524.75;5024364;28;20046;-73
2023/07/14 04:43:03;;;;;;;13.25;11.85;;;;;;;16.04;95.92;101538.50;5023731;28;20518;-74
2023/07/14 04:45:30;;;;;;;14.20;11.55;;;;;;;16.14;95.57;101526.56;5020232;28;20065;-75
2023/07/14 04:47:58;;;;;;;18.08;12.18;;;;;;;16.33;95.05;101532.88;5014453;28;20136;-75
2023/07/14 04:50:26;;;;;;;15.02;11.90;;;;;;;16.41;94.88;101530.75;5039520;28;20069;-74
2023/07/14 04:52:53;;;;;;;15.25;11.50;;;;;;;16.44;94.65;101525.31;5025874;28;20054;-76
2023/07/14 04:55:20;;;;;;;13.55;11.50;;;;;;;16.60;94.27;101521.00;5019126;28;20130;-75
2023/07/14 04:57:47;;;;;;;13.35;11.57;;;;;;;16.66;93.77;101522.53;5020459;28;20051;-75
2023/07/14 05:00:20;;;;;;;14.57;11.20;;;;;;;16.70;93.64;101528.56;5023925;28;20042;-75
2023/07/14 05:02:47;;;;;;;16.92;11.25;;;;;;;16.72;93.27;101524.06;5020430;28;20058;-75
2023/07/14 05:05:20;;;;;;;16.40;11.05;;;;;;;16.74;92.90;101527.50;5019142;28;20042;-74
2023/07/14 05:07:48;;;;;;;14.18;11.25;;;;;;;16.81;92.55;101514.78;5021501;28;20049;-75
2023/07/14 05:10:17;;;;;;;14.60;11.43;;;;;;;16.90;92.30;101520.53;5021464;28;20038;-75
2023/07/14 05:12:45;;;;;;;12.25;10.40;;;;;;;17.00;91.93;101513.03;5023075;28;20359;-74
2023/07/14 05:15:12;;;;;;;14.38;11.18;;;;;;;17.10;91.57;101523.25;5026026;28;20497;-74
2023/07/14 05:17:43;;;;;;;15.00;10.63;;;;;;;17.15;90.85;101513.22;5022405;28;20127;-74
2023/07/14 05:20:13;;;;;;;15.35;10.27;;;;;;;17.19;91.13;101510.38;5030935;28;20041;-75
2023/07/14 05:22:44;;;;;;;17.67;10.73;;;;;;;17.19;91.00;101518.38;5031557;28;20422;-74
2023/07/14 05:25:15;;;;;;;16.00;10.07;;;;;;;17.20;91.09;101520.06;5039370;28;20061;-74
2023/07/14 05:27:44;;;;;;;18.70;11.27;;;;;;;17.20;91.01;101517.41;5034690;28;20113;-74
2023/07/14 05:30:17;;;;;;;12.75;9.98;;;;;;;17.20;90.70;101520.06;5028291;28;20458;-74
2023/07/14 05:32:46;;;;;;;16.17;10.50;;;;;;;17.23;90.48;101524.41;5025844;28;20544;-75
2023/07/14 05:35:15;;;;;;;11.60;10.40;;;;;;;17.29;90.73;101521.44;5041237;28;20041;-74
2023/07/14 05:37:44;;;;;;;12.48;10.18;;;;;;;17.33;90.13;101516.81;5041879;28;20052;-74
2023/07/14 05:40:14;;;;;;;15.75;9.77;;;;;;;17.38;89.19;101520.16;5029885;28;21041;-74
2023/07/14 05:42:42;;;;;;;13.68;9.95;;;;;;;17.52;88.28;101511.47;5038441;28;20556;-74
2023/07/14 05:45:11;;;;;;;16.25;9.85;;;;;;;17.62;87.83;101514.53;5026596;28;20060;-74
2023/07/14 05:47:44;;;;;;;12.02;9.55;;;;;;;18.12;86.21;101516.50;5028320;28;20046;-74
2023/07/14 05:50:12;;;;;;;12.63;9.75;;;;;;;19.93;81.13;101521.81;5029892;28;20038;-73
2023/07/14 05:52:39;;;;;;;15.82;9.45;;;;;;;21.80;74.11;101503.88;5029389;28;20506;-75
2023/07/14 05:55:07;;;;;;;14.48;9.00;;;;;;;23.00;70.05;101506.38;5026683;28;20045;-74
2023/07/14 05:57:38;;;;;;;11.35;8.10;;;;;;;24.61;64.71;101507.75;5029527;28;20441;-75
2023/07/14 06:00:16;;;;;;;8.85;7.57;;;;;;;26.04;59.33;101511.34;5015153;28;20053;-75
2023/07/14 06:02:46;;;;;;;12.45;7.70;;;;;;;26.97;55.56;101500.59;5028631;28;20041;-76
2023/07/14 06:05:15;;;;;;;12.52;7.28;;;;;;;28.14;52.10;101495.41;5037679;28;20506;-75
2023/07/14 06:07:42;;;;;;;10.57;6.32;;;;;;;28.90;49.09;101499.81;5043648;28;20537;-75
2023/07/14 06:10:12;;;;;;;10.23;6.43;;;;;;;29.13;46.98;101502.13;5029478;28;20399;-75
2023/07/14 06:12:39;;;;;;;11.05;6.15;;;;;;;29.29;46.80;101504.16;5014081;28;20062;-74
2023/07/14 06:15:07;;;;;;;8.35;6.05;;;;;;;29.40;44.82;101508.56;5017147;28;20467;-75
2023/07/14 06:17:34;;;;;;;10.32;5.95;;;;;;;29.19;43.82;101506.06;5022533;28;20042;-75
2023/07/14 06:20:02;;;;;;;9.45;4.97;;;;;;;28.49;44.78;101502.84;5023995;28;20877;-76
2023/07/14 06:22:29;;;;;;;12.57;4.95;;;;;;;26.87;45.64;101515.94;5028626;28;20544;-75
2023/07/14 06:24:56;;;;;;;10.63;5.05;;;;;;;25.21;50.06;101511.03;5024577;28;20045;-76
2023/07/14 06:27:25;;;;;;;10.43;5.13;;;;;;;23.95;52.53;101503.84;5026613;28;20107;-75
2023/07/14 06:29:52;;;;;;;9.57;5.18;;;;;;;23.10;55.61;101508.28;5020854;28;20522;-75
2023/07/14 06:32:19;;;;;;;8.82;5.15;;;;;;;22.53;57.39;101506.13;5017305;28;20568;-74
2023/07/14 06:34:47;;;;;;;9.10;4.88;;;;;;;22.05;57.36;101504.91;5028174;28;20049;-75
2023/07/14 06:37:15;;;;;;;7.32;4.88;;;;;;;21.65;59.80;101500.41;5029482;28;20042;-75
2023/07/14 06:39:43;;;;;;;10.40;5.25;;;;;;;21.38;60.71;101508.44;5021042;28;20042;-74
2023/07/14 06:42:10;;;;;;;9.93;5.45;;;;;;;21.16;61.29;101493.78;5024644;28;20676;-73
2023/07/14 06:44:37;;;;;;;12.07;5.18;;;;;;;20.97;62.88;101488.72;5020137;28;20057;-73
2023/07/14 06:47:05;;;;;;;9.98;5.40;;;;;;;20.85;63.00;101505.56;5026118;28;20049;-74
2023/07/14 06:49:33;;;;;;;9.65;4.75;;;;;;;20.74;62.57;101496.41;5026627;28;20049;-74
2023/07/14 06:52:00;;;;;;;12.23;5.00;;;;;;;20.73;62.78;101500.00;5043334;28;20061;-74
2023/07/14 06:54:27;;;;;;;10.02;4.90;;;;;;;20.85;62.66;101500.22;5033533;28;20042;-74
2023/07/14 06:56:56;;;;;;;9.73;5.03;;;;;;;21.06;63.16;101495.31;5030211;28;20045;-75
2023/07/14 06:59:24;;;;;;;9.57;4.75;;;;;;;21.14;61.31;101497.50;5026182;28;20044;-74
2023/07/14 07:01:52;;;;;;;9.80;5.05;;;;;;;21.05;61.65;101493.59;5035028;28;20046;-74
2023/07/14 07:04:19;;;;;;;6.57;4.10;;;;;;;21.03;61.75;101492.84;5041376;28;20694;-73
2023/07/14 07:06:46;;;;;;;6.53;3.90;;;;;;;20.99;62.26;101491.28;5025539;28;20042;-73
2023/07/14 07:09:13;;;;;;;6.85;3.78;;;;;;;20.92;63.29;101486.34;5022625;28;20088;-73
2023/07/14 07:11:41;;;;;;;7.30;2.60;;;;;;;20.91;62.06;101489.97;5019588;28;20847;-73
2023/07/14 07:14:08;;;;;;;8.10;2.17;;;;;;;20.95;61.86;101490.63;5022923;28;20133;-73
2023/07/14 07:16:36;;;;;;;8.48;2.40;;;;;;;20.98;61.22;101487.78;5026594;28;20042;-73
2023/07/14 07:19:03;;;;;;;7.78;2.60;;;;;;;20.93;60.28;101485.38;5025169;28;20054;-73
2023/07/14 07:21:34;;;;;;;4.15;2.28;;;;;;;20.97;60.76;101488.72;5023881;28;20069;-73
2023/07/14 07:24:04;;;;;;;5.10;2.38;;;;;;;21.05;60.96;101475.69;5005358;28;20077;-72
2023/07/14 07:26:32;;;;;;;8.30;3.08;;;;;;;21.12;60.88;101480.63;5012102;28;20053;-73
2023/07/14 07:29:04;;;;;;;7.53;2.47;;;;;;;21.23;60.66;101483.47;5025986;28;20052;-73
2023/07/14 07:31:31;;;;;;;8.73;3.13;;;;;;;21.31;60.83;101470.47;5019676;28;20114;-73
2023/07/14 07:33:59;;;;;;;8.95;2.58;;;;;;;21.41;60.27;101471.56;5007059;28;20042;-73
2023/07/14 07:36:27;;;;;;;9.07;2.70;;;;;;;21.49;60.55;101467.50;5019589;28;20426;-73
2023/07/14 07:38:55;;;;;;;6.18;2.50;;;;;;;21.51;60.91;101473.63;5024199;28;20050;-73
2023/07/14 07:41:26;;;;;;;7.28;2.95;;;;;;;21.55;59.48;101473.31;5019916;28;20042;-74
2023/07/14 07:43:54;;;;;;;4.22;2.28;;;;;;;21.57;59.02;101465.16;5022844;28;20050;-74
2023/07/14 07:46:21;;;;;;;8.23;2.40;;;;;;;21.63;59.48;101463.94;5025813;28;20469;-74
2023/07/14 07:48:50;;;;;;;4.90;2.15;;;;;;;21.69;59.12;101461.69;5034181;28;20050;-73
2023/07/14 07:51:17;;;;;;;4.05;2.45;;;;;;;21.74;58.71;101460.50;5025576;28;20054;-73
2023/07/14 07:53:47;;;;;;;4.78;2.33;;;;;;;21.68;58.42;101459.97;5025425;28;20046;-73
2023/07/14 07:56:14;;;;;;;5.85;1.98;;;;;;;21.61;58.06;101452.44;5021040;28;20121;-72
2023/07/14 07:58:42;;;;;;;7.38;1.95;;;;;;;21.56;56.47;101461.63;5023827;28;20544;-72
2023/07/14 08:01:20;;;;;;;5.15;1.65;;;;;;;21.64;56.79;101457.59;5025197;28;20050;-72
2023/07/14 08:03:47;;;;;;;4.95;1.95;;;;;;;21.75;56.42;101456.84;5022832;28;20176;-71
2023/07/14 08:06:15;;;;;;;4.97;1.92;;;;;;;21.71;57.42;101459.78;5025166;28;20526;-72
2023/07/14 08:08:45;;;;;;;2.75;1.95;;;;;;;21.82;56.83;101453.66;5023087;28;20042;-72
2023/07/14 08:11:14;;;;;;;4.50;2.10;;;;;;;21.95;56.29;101452.81;5024199;28;20049;-72
2023/07/14 08:13:42;;;;;;;3.95;2.00;;;;;;;22.10;56.27;101446.38;5016484;28;20050;-71
2023/07/14 08:16:10;;;;;;;3.65;1.85;;;;;;;22.24;56.14;101445.41;5020866;28;20577;-72
2023/07/14 08:18:39;;;;;;;4.70;2.20;;;;;;;22.33;55.06;101454.66;5017474;28;20057;-72
2023/07/14 08:21:06;;;;;;;5.60;2.17;;;;;;;22.42;55.51;101447.81;5015115;28;20054;-73
2023/07/14 08:23:36;;;;;;;5.93;2.22;;;;;;;22.49;56.13;101449.94;5013246;28;20057;-72
2023/07/14 08:26:05;;;;;;;6.85;2.40;;;;;;;22.57;54.97;101449.38;5017855;28;20124;-73
2023/07/14 08:28:33;;;;;;;5.72;2.35;;;;;;;22.49;53.00;101449.09;5007360;28;20661;-73
2023/07/14 08:31:06;;;;;;;10.82;2.38;;;;;;;22.38;53.93;101451.63;5012286;28;20062;-72
2023/07/14 08:33:35;;;;;;;11.02;2.72;;;;;;;22.40;53.93;101441.66;5026151;28;20048;-73
2023/07/14 08:36:04;;;;;;;7.75;2.28;;;;;;;22.54;55.45;101446.06;5023932;28;20547;-72
2023/07/14 08:38:34;;;;;;;4.93;2.13;;;;;;;22.69;55.87;101444.94;5029676;28;20501;-72
2023/07/14 08:41:29;;;;;;;8.52;2.35;;;;;;;22.80;56.00;101446.88;5023923;28;20038;-73
2023/07/14 08:44:34;;;;;;;5.40;2.17;;;;;;;22.80;54.64;101449.56;5007207;28;20061;-73
2023/07/14 08:47:17;;;;;;;8.15;2.25;;;;;;;22.87;53.43;101441.91;5015337;28;20454;-73
2023/07/14 08:49:56;;;;;;;9.10;2.42;;;;;;;23.09;53.21;101438.50;5008655;28;20043;-73
2023/07/14 08:52:35;;;;;;;5.93;2.20;;;;;;;23.34;53.67;101431.31;5023340;28;20125;-73
2023/07/14 08:55:16;;;;;;;5.85;2.40;;;;;;;23.48;52.29;101428.44;5020838;28;20104;-73
2023/07/14 08:57:48;;;;;;;6.93;2.20;;;;;;;23.55;51.99;101437.75;5015741;28;20564;-73
2023/07/14 09:00:27;;;;;;;9.60;2.40;;;;;;;23.47;51.94;101429.41;5018043;28;20057;-72
2023/07/14 09:03:12;;;;;;;9.82;2.40;;;;;;;23.39;52.35;101427.31;5014467;28;20546;-73
2023/07/14 09:05:51;;;;;;;13.50;2.95;;;;;;;23.34;52.87;101431.31;5011136;28;20426;-73
2023/07/14 09:08:21;;;;;;;6.47;2.22;;;;;;;23.36;53.27;101430.22;5011499;28;20047;-74
2023/07/14 09:11:12;;;;;;;7.63;1.92;;;;;;;23.37;53.45;101433.75;5014507;28;20132;-73
2023/07/14 09:13:55;;;;;;;7.88;1.95;;;;;;;23.35;53.91;101430.34;5015033;28;20046;-73
2023/07/14 09:16:27;;;;;;;5.43;2.45;;;;;;;23.30;53.75;101424.44;5017003;28;20035;-73
2023/07/14 09:19:24;;;;;;;9.30;2.28;;;;;;;23.21;52.98;101418.78;5007916;28;20509;-72
2023/07/14 09:22:03;;;;;;;4.45;2.17;;;;;;;23.09;53.57;101430.44;5014935;28;20653;-73
2023/07/14 09:24:53;;;;;;;4.07;2.08;;;;;;;23.09;54.13;101427.75;5009336;28;20053;-73
2023/07/14 09:27:26;;;;;;;7.38;2.42;;;;;;;23.13;54.48;101415.78;5023474;28;20050;-73
2023/07/14 09:29:57;;;;;;;;;;;;;;;23.07;53.98;101424.28;5024911;28;20048;-72
2023/07/14 09:32:39;;;;;;;5.50;2.50;;;;;;;23.12;53.30;101419.44;5029645;28;20073;-73
2023/07/14 09:35:22;;;;;;;5.18;2.33;;;;;;;23.23;53.10;101421.34;5026739;28;20427;-72
2023/07/14 09:38:07;;;;;;;4.00;2.65;;;;;;;23.30;51.81;101417.22;5022752;28;20588;-71
2023/07/14 09:40:39;;;;;;;10.85;2.83;;;;;;;23.42;52.34;101413.59;5019306;28;20046;-73
2023/07/14 09:43:07;;;;;;;7.35;2.60;;;;;;;23.63;52.74;101409.41;5011718;28;20529;-73
2023/07/14 09:45:38;;;;;;;5.03;2.63;;;;;;;23.83;51.58;101411.41;5013230;28;20047;-72
2023/07/14 09:48:39;;;;;;;6.07;2.67;;;;;;;24.08;51.67;101406.81;5018107;28;20054;-72
2023/07/14 09:51:16;;;;;;;10.55;2.78;;;;;;;24.21;50.67;101404.03;5010306;28;20045;-72
2023/07/14 09:54:04;;;;;;;5.90;2.63;;;;;;;24.48;50.59;101395.53;5022515;28;20057;-72
2023/07/14 09:56:37;;;;;;;8.43;2.50;;;;;;;24.64;50.87;101387.06;5020702;28;20047;-72
2023/07/14 09:59:17;;;;;;;5.05;2.45;;;;;;;24.79;50.28;101392.22;5020998;28;20069;-73
2023/07/14 10:01:52;;;;;;;6.47;3.05;;;;;;;24.84;48.45;101381.06;5023529;28;20538;-72
2023/07/14 10:04:31;;;;;;;5.30;2.55;;;;;;;24.80;49.38;101373.22;5018076;28;20595;-73
2023/07/14 10:07:31;;;;;;;5.15;2.42;;;;;;;24.89;49.23;101370.75;5012806;28;20050;-74
2023/07/14 10:10:08;;;;;;;4.47;2.40;;;;;;;25.07;49.74;101371.94;5015883;28;20074;-72
2023/07/14 10:12:42;;;;;;;5.72;2.13;;;;;;;25.26;49.03;101368.50;5011697;28;20182;-71
2023/07/14 10:15:30;;;;;;;;;;;;;;;25.45;49.22;101358.88;5016682;28;20139;-72
2023/07/14 10:18:18;;;;;;;4.80;2.25;;;;;;;25.63;49.11;101356.44;5012655;28;19936;-71
2023/07/14 10:21:01;;;;;;;5.07;2.03;;;;;;;25.67;48.81;101357.03;5019870;28;20495;-73
2023/07/14 10:23:28;;;;;;;8.15;2.88;;;;;;;25.69;47.58;101360.47;5018207;28;20046;-74
2023/07/14 10:25:56;;;;;;;6.05;2.35;;;;;;;25.62;48.19;101345.78;5010509;28;20046;-73
2023/07/14 10:28:28;;;;;;;4.72;2.35;;;;;;;25.66;48.39;101345.38;5022580;28;22053;-73
2023/07/14 10:31:42;;;;;;;5.93;2.50;;;;;;;25.80;46.59;101337.91;5016773;28;20042;-71
2023/07/14 10:34:55;;;;;;;4.57;2.25;;;;;;;25.76;46.10;101329.22;5020296;28;20492;-71
2023/07/14 10:37:35;;;;;;;4.47;1.88;;;;;;;25.73;45.05;101327.66;5023713;28;20530;-70
2023/07/14 10:40:14;;;;;;;4.80;2.03;;;;;;;25.73;46.39;101316.88;5025877;28;20410;-71
2023/07/14 10:42:56;;;;;;;7.70;2.65;;;;;;;25.81;45.28;101320.72;5024037;28;20052;-72
2023/07/14 10:45:24;;;;;;;6.30;2.10;;;;;;;25.75;46.22;101316.72;5024723;28;20141;-71
2023/07/14 10:48:13;;;;;;;5.05;2.20;;;;;;;25.73;45.03;101316.03;5024827;28;20082;-71
2023/07/14 10:50:57;;;;;;;4.40;2.10;;;;;;;25.65;45.38;101318.50;5024928;28;20056;-72
2023/07/14 10:53:36;;;;;;;5.22;2.42;;;;;;;25.63;45.35;101307.84;5020545;28;20054;-71
2023/07/14 10:56:20;;;;;;;5.95;2.00;;;;;;;25.56;45.67;101310.22;5024048;28;20049;-71
2023/07/14 10:58:54;;;;;;;;;;;;;;;25.40;46.07;101313.41;5021829;28;20054;-71
2023/07/14 11:02:11;;;;;;;5.00;2.17;;;;;;;25.42;46.44;101302.50;5011269;28;19936;-71
2023/07/14 11:04:47;;;;;;;5.03;2.20;;;;;;;25.46;46.28;101298.53;5015307;28;20088;-72
2023/07/14 11:07:29;;;;;;;4.07;1.90;;;;;;;25.57;46.44;101298.44;5013997;28;20050;-72
2023/07/14 11:09:58;;;;;;;5.35;2.17;;;;;;;25.65;45.51;101292.38;5012446;28;20045;-71
2023/07/14 11:12:41;;;;;;;5.05;1.90;;;;;;;25.68;46.03;101284.03;5018658;28;20047;-71
2023/07/14 11:15:23;;;;;;;6.82;2.20;;;;;;;25.76;46.14;101294.13;5015041;28;20046;-72
2023/07/14 11:18:32;;;;;;;5.40;2.20;;;;;;;25.96;45.75;101296.91;5020127;28;20057;-73
2023/07/14 11:21:31;;;;;;;9.02;2.45;;;;;;;26.25;46.35;101288.09;5016045;28;20050;-70
2023/07/14 11:24:23;;;;;;;3.67;2.13;;;;;;;26.57;44.33;101277.03;5010402;28;20497;-73
2023/07/14 11:27:16;;;;;;;6.80;1.90;;;;;;;26.63;44.72;101272.94;5021090;28;20054;-71
2023/07/14 11:29:58;;;;;;;6.10;2.00;;;;;;;26.71;45.25;101266.81;5014092;28;20128;-73
2023/07/14 11:32:51;;;;;;;5.88;2.22;;;;;;;26.72;43.44;101268.50;5013906;28;20039;-73
2023/07/14 11:35:34;;;;;;;5.53;2.25;;;;;;;26.57;43.04;101270.78;5010774;28;20046;-72
2023/07/14 11:38:28;;;;;;;6.13;2.15;;;;;;;26.37;43.58;101259.94;5012871;28;20056;-73
2023/07/14 11:40:57;;;;;;;6.18;2.28;;;;;;;26.19;43.65;101268.72;5009047;28;20054;-73
2023/07/14 11:43:29;;;;;;;8.00;2.13;;;;;;;26.09;44.17;101257.03;5016427;28;20038;-72
2023/07/14 11:46:03;;;;;;;3.28;2.03;;;;;;;26.17;43.92;101253.66;5013945;28;20165;-73
2023/07/14 11:49:01;;;;;;;5.95;1.92;;;;;;;26.28;43.87;101242.75;5013868;28;20038;-74